Time;durP1;ratioP1;P1;durP2;ratioP2;P2;SDS_P1;SDS_P2;PMS_P1;PMS_P2;Temp;Humidity;BMP_temperature;BMP_pressure;BME280_temperature;BME280_humidity;BME280_pressure;Samples;Min_cycle;Max_cycle;Signal;HPM_P1;HPM_P2
2023/05/14 04:31:24;;;;;;;44.15;20.40;;;14.40;78.10;;;;;;5402604;23;20847;-87
2023/05/14 04:33:50;;;;;;;40.88;20.40;;;14.40;78.30;;;;;;4916255;29;20028;-87
2023/05/14 04:36:16;;;;;;;50.90;22.75;;;14.40;78.20;;;;;;4900270;29;20418;-86
2023/05/14 04:38:42;;;;;;;41.60;19.95;;;14.40;78.10;;;;;;4917828;29;20079;-86
2023/05/14 04:41:07;;;;;;;42.33;19.92;;;14.50;78.00;;;;;;4918779;29;20107;-85
2023/05/14 04:43:33;;;;;;;43.70;20.92;;;14.50;78.00;;;;;;4918947;29;20064;-86
2023/05/14 04:45:59;;;;;;;45.05;21.00;;;14.50;78.30;;;;;;4906116;29;20035;-86
2023/05/14 04:48:25;;;;;;;42.78;20.10;;;14.40;78.40;;;;;;4918697;29;20074;-86
2023/05/14 04:50:51;;;;;;;40.33;19.73;;;14.40;78.10;;;;;;4918779;29;20072;-86
2023/05/14 04:53:16;;;;;;;40.55;20.70;;;14.50;78.00;;;;;;4901992;29;20036;-86
2023/05/14 04:55:42;;;;;;;48.13;20.23;;;14.50;78.00;;;;;;4919054;29;20028;-87
2023/05/14 04:58:07;;;;;;;40.40;20.98;;;14.50;77.70;;;;;;4921034;29;20039;-86
2023/05/14 05:00:33;;;;;;;45.97;22.35;;;14.50;77.60;;;;;;4906165;29;20025;-85
2023/05/14 05:02:59;;;;;;;48.65;22.15;;;14.50;78.00;;;;;;4914988;29;20040;-88
2023/05/14 05:05:24;;;;;;;43.95;20.58;;;14.40;78.20;;;;;;4901358;29;20132;-86
2023/05/14 05:07:50;;;;;;;47.22;20.95;;;14.40;77.90;;;;;;4921911;29;20092;-87
2023/05/14 05:10:16;;;;;;;41.63;22.50;;;14.50;77.70;;;;;;4905100;29;20119;-87
2023/05/14 05:12:41;;;;;;;39.58;21.38;;;14.50;77.80;;;;;;4922174;29;20449;-86
2023/05/14 05:15:08;;;;;;;45.92;19.70;;;14.50;77.90;;;;;;4904800;29;20036;-86
2023/05/14 05:17:34;;;;;;;42.65;22.55;;;14.50;78.10;;;;;;4905297;29;20111;-86
2023/05/14 05:19:59;;;;;;;47.88;22.02;;;14.60;77.80;;;;;;4922037;29;20028;-86
2023/05/14 05:22:25;;;;;;;43.58;20.42;;;14.60;78.00;;;;;;4919077;29;20035;-86
2023/05/14 05:24:51;;;;;;;43.97;19.85;;;14.60;77.60;;;;;;4901640;29;20024;-86
2023/05/14 05:27:17;;;;;;;44.58;20.98;;;14.60;77.90;;;;;;4901976;29;20041;-86
2023/05/14 05:29:45;;;;;;;50.50;21.33;;;14.70;77.50;;;;;;4902196;29;20021;-87
2023/05/14 05:32:11;;;;;;;44.20;20.20;;;14.70;77.60;;;;;;4905954;29;20046;-86
2023/05/14 05:34:37;;;;;;;46.85;20.38;;;14.70;77.40;;;;;;4904697;29;20117;-87
2023/05/14 05:37:04;;;;;;;42.92;20.38;;;14.70;77.60;;;;;;4921370;29;20505;-87
2023/05/14 05:39:33;;;;;;;43.35;19.98;;;14.70;77.20;;;;;;4904698;29;20094;-86
2023/05/14 05:42:01;;;;;;;39.85;20.20;;;14.80;77.20;;;;;;4921518;29;20455;-87
2023/05/14 05:44:27;;;;;;;44.78;20.38;;;14.80;77.00;;;;;;4904363;29;20033;-86
2023/05/14 05:46:54;;;;;;;45.80;21.17;;;14.80;77.00;;;;;;4920584;29;20067;-86
2023/05/14 05:49:20;;;;;;;37.42;20.38;;;14.80;77.10;;;;;;4903813;29;20021;-86
2023/05/14 05:51:46;;;;;;;41.83;20.40;;;14.80;77.10;;;;;;4921668;29;20036;-86
2023/05/14 05:54:11;;;;;;;38.90;18.73;;;14.80;76.70;;;;;;4904681;29;20087;-86
2023/05/14 05:56:37;;;;;;;42.83;20.08;;;14.90;76.90;;;;;;4904699;29;20036;-87
2023/05/14 05:59:03;;;;;;;42.30;21.10;;;14.90;77.10;;;;;;4920886;29;20028;-86
2023/05/14 06:01:29;;;;;;;43.08;21.27;;;14.90;76.90;;;;;;4920308;29;20036;-86
2023/05/14 06:03:56;;;;;;;40.72;21.00;;;14.90;77.00;;;;;;4920812;29;20032;-86
2023/05/14 06:06:21;;;;;;;40.63;18.90;;;14.90;77.00;;;;;;4921267;29;20031;-86
2023/05/14 06:08:47;;;;;;;41.97;18.95;;;15.00;77.10;;;;;;4920638;29;20087;-86
2023/05/14 06:11:13;;;;;;;38.10;20.98;;;15.00;76.90;;;;;;4919614;29;20066;-86
2023/05/14 06:13:39;;;;;;;36.17;19.27;;;15.10;76.80;;;;;;4904105;29;20031;-86
2023/05/14 06:16:04;;;;;;;35.28;18.13;;;15.10;76.70;;;;;;4920003;29;20040;-86
2023/05/14 06:18:30;;;;;;;44.35;20.65;;;15.10;76.70;;;;;;4904161;29;20032;-85
2023/05/14 06:20:56;;;;;;;37.50;19.92;;;15.20;76.50;;;;;;4920615;29;20028;-86
2023/05/14 06:23:22;;;;;;;39.15;18.23;;;15.20;76.30;;;;;;4919934;29;20039;-86
2023/05/14 06:25:51;;;;;;;33.97;17.92;;;15.30;76.20;;;;;;4920707;29;20040;-86
2023/05/14 06:28:17;;;;;;;38.08;19.23;;;15.30;76.10;;;;;;4919872;29;20032;-86
2023/05/14 06:30:42;;;;;;;38.58;18.88;;;15.30;76.00;;;;;;4906334;29;20048;-86
2023/05/14 06:33:08;;;;;;;36.05;18.17;;;15.40;75.80;;;;;;4920189;29;20028;-85
2023/05/14 06:35:34;;;;;;;38.88;19.83;;;15.50;75.50;;;;;;4904084;29;20040;-86
2023/05/14 06:37:59;;;;;;;41.55;20.80;;;15.70;75.40;;;;;;4903787;29;20025;-86
2023/05/14 06:40:25;;;;;;;41.35;21.60;;;15.80;74.90;;;;;;4903946;29;20554;-86
2023/05/14 06:42:50;;;;;;;40.75;19.60;;;15.90;74.60;;;;;;4920926;29;20031;-86
2023/05/14 06:45:16;;;;;;;43.92;21.17;;;16.00;74.60;;;;;;4919896;29;20032;-86
2023/05/14 06:47:42;;;;;;;43.58;21.75;;;16.10;74.30;;;;;;4920816;29;20028;-86
2023/05/14 06:50:08;;;;;;;42.20;21.23;;;16.10;74.30;;;;;;4903315;29;20035;-87
2023/05/14 06:52:35;;;;;;;45.58;20.73;;;16.10;74.00;;;;;;4920614;29;20028;-87
2023/05/14 06:55:01;;;;;;;44.25;20.55;;;16.20;73.80;;;;;;4902715;29;20056;-86
2023/05/14 06:57:26;;;;;;;43.92;21.92;;;16.20;73.70;;;;;;4920441;29;20039;-86
2023/05/14 06:59:52;;;;;;;48.40;21.55;;;16.20;73.60;;;;;;4919092;29;20047;-86
2023/05/14 07:02:17;;;;;;;42.30;20.58;;;16.20;73.40;;;;;;4906369;29;20032;-86
2023/05/14 07:04:43;;;;;;;42.33;20.15;;;16.30;73.20;;;;;;4912249;29;20067;-88
2023/05/14 07:07:12;;;;;;;39.75;19.40;;;16.30;73.20;;;;;;4920253;29;20087;-86
2023/05/14 07:09:37;;;;;;;42.70;20.45;;;16.30;73.20;;;;;;4919646;29;20079;-87
2023/05/14 07:12:04;;;;;;;41.35;19.02;;;16.40;73.20;;;;;;4920333;29;20024;-87
2023/05/14 07:14:29;;;;;;;39.45;19.27;;;16.50;72.90;;;;;;4903061;29;20081;-86
2023/05/14 07:16:56;;;;;;;35.72;18.83;;;16.50;72.90;;;;;;4918456;29;20035;-86
2023/05/14 07:19:21;;;;;;;39.25;18.08;;;16.50;72.90;;;;;;4901926;29;20402;-87
2023/05/14 07:21:47;;;;;;;38.20;17.98;;;16.60;72.70;;;;;;4903095;29;20025;-86
2023/05/14 07:24:12;;;;;;;32.90;18.60;;;16.70;72.50;;;;;;4894311;29;20396;-87
2023/05/14 07:26:38;;;;;;;37.00;19.63;;;16.80;72.30;;;;;;4919995;29;20510;-86
2023/05/14 07:29:04;;;;;;;37.67;18.90;;;16.80;72.00;;;;;;4902989;29;20040;-86
2023/05/14 07:31:30;;;;;;;37.35;17.02;;;16.90;71.90;;;;;;4901990;29;20056;-86
2023/05/14 07:33:55;;;;;;;34.97;18.35;;;17.00;71.70;;;;;;4902551;29;20447;-86
2023/05/14 07:36:21;;;;;;;34.33;17.25;;;17.10;71.50;;;;;;4919354;29;20079;-87
2023/05/14 07:38:46;;;;;;;32.15;16.55;;;17.30;70.80;;;;;;4919307;29;20087;-86
2023/05/14 07:41:12;;;;;;;34.28;17.63;;;17.70;70.30;;;;;;4919824;29;20031;-86
2023/05/14 07:43:39;;;;;;;34.85;16.85;;;17.80;69.40;;;;;;4919215;29;20028;-85
2023/05/14 07:46:04;;;;;;;28.88;16.20;;;18.70;67.60;;;;;;4902412;29;20035;-86
2023/05/14 07:48:30;;;;;;;28.85;16.42;;;19.80;65.10;;;;;;4917126;29;20035;-86
2023/05/14 07:50:56;;;;;;;28.58;16.73;;;21.10;61.50;;;;;;4919578;29;20036;-85
2023/05/14 07:53:22;;;;;;;29.15;15.57;;;21.80;58.60;;;;;;4919505;29;20027;-86
2023/05/14 07:55:48;;;;;;;29.30;15.45;;;22.30;56.50;;;;;;4919212;29;20486;-87
2023/05/14 07:58:14;;;;;;;25.08;16.25;;;22.10;56.60;;;;;;4901919;29;20211;-87
2023/05/14 08:00:40;;;;;;;28.45;16.17;;;21.80;57.50;;;;;;4919324;29;20024;-86
2023/05/14 08:03:06;;;;;;;27.10;16.48;;;21.40;58.20;;;;;;4918413;29;20036;-85
2023/05/14 08:05:31;;;;;;;25.70;15.35;;;20.90;58.50;;;;;;4918949;29;20040;-86
2023/05/14 08:07:57;;;;;;;29.23;16.35;;;20.50;59.80;;;;;;4902210;29;20028;-85
2023/05/14 08:10:23;;;;;;;27.75;16.15;;;20.00;60.80;;;;;;4918941;29;20032;-85
2023/05/14 08:12:49;;;;;;;28.92;14.50;;;20.20;61.10;;;;;;4919078;29;20027;-86
2023/05/14 08:15:14;;;;;;;24.67;15.35;;;20.30;60.40;;;;;;4919160;29;20029;-86
2023/05/14 08:17:40;;;;;;;24.85;15.20;;;20.30;60.60;;;;;;4902236;29;20032;-85
2023/05/14 08:20:07;;;;;;;22.15;13.70;;;20.30;60.40;;;;;;4919128;29;20083;-85
2023/05/14 08:22:32;;;;;;;21.90;14.55;;;20.20;60.70;;;;;;4919254;29;20031;-86
2023/05/14 08:24:59;;;;;;;22.23;13.82;;;20.00;61.30;;;;;;4918786;29;20036;-85
2023/05/14 08:27:26;;;;;;;26.77;14.35;;;20.30;60.40;;;;;;4919560;29;20025;-85
2023/05/14 08:29:52;;;;;;;23.55;14.70;;;20.30;60.30;;;;;;4919090;29;20035;-85
2023/05/14 08:32:17;;;;;;;25.48;15.02;;;21.30;59.40;;;;;;4921826;29;20036;-85
2023/05/14 08:34:43;;;;;;;26.23;14.93;;;21.30;58.60;;;;;;4922816;29;20079;-85
2023/05/14 08:37:08;;;;;;;26.02;15.07;;;22.10;57.40;;;;;;4922943;29;20028;-86
2023/05/14 08:39:34;;;;;;;21.13;13.52;;;22.50;56.30;;;;;;4922244;29;20040;-85
2023/05/14 08:42:04;;;;;;;22.38;13.38;;;22.70;55.80;;;;;;4905635;29;20024;-86
2023/05/14 08:44:41;;;;;;;21.63;13.20;;;22.80;55.70;;;;;;4905679;29;20118;-86
2023/05/14 08:47:07;;;;;;;23.45;13.95;;;23.40;55.00;;;;;;4905427;29;20040;-86
2023/05/14 08:49:45;;;;;;;20.45;13.90;;;23.00;54.80;;;;;;4922664;29;20024;-85
2023/05/14 08:52:11;;;;;;;22.27;14.25;;;22.70;55.10;;;;;;4922596;29;20028;-85
2023/05/14 08:54:38;;;;;;;20.45;13.35;;;22.20;55.20;;;;;;4922082;29;20036;-85
2023/05/14 08:57:05;;;;;;;22.02;13.10;;;21.80;57.00;;;;;;4905792;29;20127;-86
2023/05/14 08:59:31;;;;;;;22.05;13.30;;;21.50;57.70;;;;;;4904950;29;20031;-86
2023/05/14 09:02:01;;;;;;;26.20;15.75;;;21.10;58.30;;;;;;4902844;29;20028;-84
2023/05/14 09:04:27;;;;;;;23.73;14.68;;;21.00;58.20;;;;;;4905550;29;20032;-85
2023/05/14 09:06:53;;;;;;;23.85;13.85;;;20.80;59.10;;;;;;4909932;29;20036;-85
2023/05/14 09:09:21;;;;;;;22.42;13.82;;;20.70;59.50;;;;;;4922260;29;20036;-85
2023/05/14 09:11:51;;;;;;;20.05;13.10;;;20.70;59.30;;;;;;4904972;29;20439;-85
2023/05/14 09:14:17;;;;;;;24.20;14.25;;;20.80;59.30;;;;;;4921621;29;20121;-85
2023/05/14 09:16:48;;;;;;;22.85;13.48;;;20.90;59.30;;;;;;4922106;29;20154;-84
2023/05/14 09:19:17;;;;;;;20.95;12.80;;;21.50;57.80;;;;;;4921093;29;20040;-85
2023/05/14 09:21:44;;;;;;;21.23;13.53;;;22.10;56.70;;;;;;4920810;29;20032;-85
2023/05/14 09:24:22;;;;;;;21.98;13.00;;;22.90;55.10;;;;;;4920091;29;20499;-85
2023/05/14 09:26:53;;;;;;;19.50;13.80;;;23.30;53.10;;;;;;4922081;29;20028;-85
2023/05/14 09:29:19;;;;;;;19.75;12.55;;;24.20;52.20;;;;;;4921558;29;20039;-85
2023/05/14 09:31:48;;;;;;;18.27;13.02;;;25.50;50.40;;;;;;4921285;29;20392;-86
2023/05/14 09:34:26;;;;;;;18.33;10.98;;;26.10;47.70;;;;;;4917785;29;20107;-86
2023/05/14 09:37:02;;;;;;;17.60;12.82;;;27.20;45.10;;;;;;4903285;29;20092;-86
2023/05/14 09:39:29;;;;;;;19.23;12.15;;;26.40;45.30;;;;;;4914931;29;20118;-85
2023/05/14 09:41:55;;;;;;;19.15;13.05;;;26.20;46.50;;;;;;4921276;29;20035;-85
2023/05/14 09:44:22;;;;;;;18.20;11.75;;;25.30;47.70;;;;;;4921775;29;20025;-84
2023/05/14 09:46:48;;;;;;;18.33;12.65;;;24.80;49.30;;;;;;4921039;29;20411;-85
2023/05/14 09:49:14;;;;;;;21.67;14.05;;;24.30;50.30;;;;;;4904780;29;20028;-85
2023/05/14 09:51:40;;;;;;;20.55;13.38;;;23.80;51.40;;;;;;4921636;29;20490;-84
2023/05/14 09:54:06;;;;;;;19.25;13.40;;;23.50;52.10;;;;;;4920672;29;20024;-85
2023/05/14 09:56:34;;;;;;;15.77;11.73;;;24.50;50.30;;;;;;4904408;29;20541;-85
2023/05/14 09:59:00;;;;;;;13.82;11.15;;;26.00;48.80;;;;;;4921469;29;20084;-85
2023/05/14 10:01:28;;;;;;;16.27;11.38;;;27.40;46.00;;;;;;4919754;29;20028;-85
2023/05/14 10:03:55;;;;;;;18.63;12.23;;;28.20;43.90;;;;;;4921328;29;20039;-85
2023/05/14 10:06:24;;;;;;;16.30;11.25;;;28.00;42.70;;;;;;4921634;29;20067;-85
2023/05/14 10:08:56;;;;;;;16.90;12.25;;;28.00;42.40;;;;;;4903682;29;20446;-85
2023/05/14 10:11:25;;;;;;;18.15;11.82;;;27.70;44.10;;;;;;4921079;29;20032;-85
2023/05/14 10:14:06;;;;;;;19.30;12.35;;;27.40;43.90;;;;;;4900648;29;20032;-85
2023/05/14 10:16:44;;;;;;;16.45;10.60;;;27.30;43.60;;;;;;4901098;29;20037;-85
2023/05/14 10:19:11;;;;;;;15.25;10.75;;;28.10;42.00;;;;;;4921138;29;20016;-85
2023/05/14 10:21:40;;;;;;;14.80;10.43;;;28.20;42.20;;;;;;4920493;29;20024;-85
2023/05/14 10:24:08;;;;;;;17.20;11.45;;;28.30;41.90;;;;;;4919688;29;20514;-84
2023/05/14 10:26:38;;;;;;;16.13;10.88;;;27.90;42.50;;;;;;4903145;29;20040;-84
2023/05/14 10:29:11;;;;;;;18.77;11.30;;;27.50;43.20;;;;;;4903831;29;20035;-84
2023/05/14 10:31:52;;;;;;;11.50;8.90;;;27.30;44.00;;;;;;4903373;29;20059;-84
2023/05/14 10:34:31;;;;;;;13.77;10.13;;;26.90;44.50;;;;;;4920197;29;20048;-84
2023/05/14 10:37:01;;;;;;;15.13;10.32;;;26.20;45.10;;;;;;4903921;29;20033;-84
2023/05/14 10:39:50;;;;;;;14.23;10.02;;;25.80;46.80;;;;;;4903437;29;20028;-84
2023/05/14 10:42:18;;;;;;;12.10;9.47;;;25.50;46.70;;;;;;4903319;29;20039;-85
2023/05/14 10:45:00;;;;;;;13.35;10.30;;;25.20;47.70;;;;;;4903962;29;20043;-85
2023/05/14 10:47:27;;;;;;;14.30;10.15;;;25.00;49.40;;;;;;4920133;29;20036;-85
2023/05/14 10:49:56;;;;;;;12.60;9.30;;;24.80;49.60;;;;;;4920937;29;20032;-84
2023/05/14 10:52:22;;;;;;;14.82;10.10;;;24.60;49.40;;;;;;4920398;29;20387;-84
2023/05/14 10:54:53;;;;;;;18.15;11.30;;;24.40;50.60;;;;;;4919129;29;20042;-84
2023/05/14 10:57:20;;;;;;;16.63;11.18;;;24.40;51.10;;;;;;4903537;29;20032;-84
2023/05/14 10:59:53;;;;;;;13.50;10.15;;;24.50;51.40;;;;;;4913250;29;20032;-84
2023/05/14 11:02:30;;;;;;;14.93;10.02;;;24.50;51.50;;;;;;4919293;29;20024;-84
2023/05/14 11:05:12;;;;;;;16.17;10.18;;;24.50;51.70;;;;;;4903461;29;20087;-84
2023/05/14 11:07:43;;;;;;;15.60;10.35;;;24.30;51.50;;;;;;4916318;29;20543;-84
2023/05/14 11:10:14;;;;;;;14.60;10.05;;;24.30;51.30;;;;;;4919405;29;20103;-85
2023/05/14 11:12:42;;;;;;;13.85;8.93;;;24.40;51.90;;;;;;4903141;29;20021;-84
2023/05/14 11:15:13;;;;;;;15.00;8.88;;;24.40;51.90;;;;;;4919592;29;20034;-84
2023/05/14 11:17:41;;;;;;;13.20;9.13;;;24.40;52.10;;;;;;4918326;29;20032;-85
2023/05/14 11:20:07;;;;;;;15.25;9.25;;;24.30;51.70;;;;;;4909778;29;20020;-84
2023/05/14 11:22:34;;;;;;;13.88;9.60;;;24.20;50.70;;;;;;4899959;29;20020;-84
2023/05/14 11:25:00;;;;;;;13.30;9.13;;;24.00;50.40;;;;;;4901060;29;20084;-84
2023/05/14 11:27:26;;;;;;;13.00;8.95;;;23.90;52.30;;;;;;4906521;29;20563;-84
2023/05/14 11:29:52;;;;;;;16.80;9.65;;;23.80;52.30;;;;;;4903049;29;20487;-85
2023/05/14 11:32:18;;;;;;;15.38;9.88;;;23.70;53.70;;;;;;4919794;29;20406;-84
2023/05/14 11:34:45;;;;;;;17.52;10.60;;;23.80;53.80;;;;;;4919700;29;20418;-85
2023/05/14 11:37:12;;;;;;;12.18;9.35;;;23.90;53.30;;;;;;4919471;29;20555;-84
2023/05/14 11:39:44;;;;;;;11.95;9.18;;;23.90;53.60;;;;;;4919780;29;20495;-85
2023/05/14 11:42:12;;;;;;;14.55;9.65;;;23.90;53.30;;;;;;4902591;29;20028;-84
2023/05/14 11:44:38;;;;;;;16.98;10.82;;;24.00;53.00;;;;;;4901968;29;20028;-84
2023/05/14 11:47:05;;;;;;;12.18;8.70;;;23.70;53.20;;;;;;4919497;29;20043;-84
2023/05/14 11:49:31;;;;;;;14.80;9.75;;;23.60;53.70;;;;;;4919598;29;20027;-84
2023/05/14 11:52:01;;;;;;;10.75;7.85;;;23.60;53.70;;;;;;4918925;29;20392;-84
2023/05/14 11:54:27;;;;;;;15.75;9.02;;;23.70;53.50;;;;;;4919711;29;20032;-85
2023/05/14 11:56:58;;;;;;;13.40;9.65;;;23.70;53.30;;;;;;4902390;29;20028;-84
2023/05/14 11:59:32;;;;;;;12.32;8.98;;;23.80;53.30;;;;;;4919233;29;20099;-84
2023/05/14 12:01:58;;;;;;;14.68;9.75;;;24.00;51.80;;;;;;4919284;29;20035;-84
2023/05/14 12:04:24;;;;;;;15.18;9.95;;;23.90;52.40;;;;;;4918643;29;20032;-84
2023/05/14 12:06:53;;;;;;;15.65;10.38;;;23.80;52.30;;;;;;4902600;29;20144;-84
2023/05/14 12:09:20;;;;;;;13.27;9.02;;;23.80;51.40;;;;;;4916962;29;20043;-84
2023/05/14 12:11:51;;;;;;;13.45;9.32;;;23.50;51.40;;;;;;4888172;29;20067;-84
2023/05/14 12:14:22;;;;;;;22.15;10.25;;;23.40;52.60;;;;;;4907381;29;20036;-83
2023/05/14 12:16:49;;;;;;;14.02;9.80;;;23.50;53.60;;;;;;4918152;29;20084;-84
2023/05/14 12:19:16;;;;;;;13.77;9.70;;;23.50;53.80;;;;;;4902531;29;20032;-84
2023/05/14 12:21:43;;;;;;;14.18;10.30;;;23.40;53.80;;;;;;4918888;29;20032;-84
2023/05/14 12:24:11;;;;;;;15.45;10.30;;;23.40;53.80;;;;;;4919174;29;20080;-84
2023/05/14 12:26:40;;;;;;;15.38;9.63;;;23.50;54.00;;;;;;4919242;29;20119;-84
2023/05/14 12:29:06;;;;;;;13.23;9.55;;;23.70;54.40;;;;;;4918531;29;20035;-84
2023/05/14 12:31:35;;;;;;;13.93;9.20;;;23.80;53.60;;;;;;4902040;29;20064;-84
2023/05/14 12:34:02;;;;;;;14.00;10.02;;;23.80;52.40;;;;;;4919271;29;20039;-84
2023/05/14 12:36:29;;;;;;;16.30;10.13;;;23.80;52.40;;;;;;4902303;29;20033;-84
2023/05/14 12:39:00;;;;;;;15.40;9.88;;;23.80;52.70;;;;;;4901769;29;20043;-84
2023/05/14 12:41:26;;;;;;;12.93;10.07;;;23.80;52.80;;;;;;4918007;29;20505;-84
2023/05/14 12:43:52;;;;;;;17.00;11.23;;;23.80;53.40;;;;;;4919071;29;20063;-85
2023/05/14 12:46:18;;;;;;;14.45;10.80;;;23.90;53.30;;;;;;4901321;29;20044;-85
2023/05/14 12:48:43;;;;;;;13.75;10.40;;;23.80;53.50;;;;;;4918967;29;20091;-84
2023/05/14 12:51:09;;;;;;;18.63;11.15;;;23.80;52.40;;;;;;4919080;29;20112;-85
2023/05/14 12:53:35;;;;;;;15.20;10.43;;;23.70;52.40;;;;;;4918885;29;20202;-84
2023/05/14 12:56:00;;;;;;;17.05;11.40;;;23.60;52.30;;;;;;4918649;29;20030;-85
2023/05/14 12:58:26;;;;;;;14.13;9.88;;;23.60;53.20;;;;;;4912951;29;20123;-84
2023/05/14 13:00:52;;;;;;;14.73;10.32;;;23.60;53.10;;;;;;4906935;29;20040;-85
2023/05/14 13:03:17;;;;;;;15.43;9.95;;;23.60;52.70;;;;;;4883140;29;20028;-85
2023/05/14 13:05:43;;;;;;;12.88;9.43;;;23.50;53.10;;;;;;4914260;29;20090;-84
2023/05/14 13:08:09;;;;;;;16.35;9.88;;;23.60;53.50;;;;;;4916936;29;20028;-85
2023/05/14 13:10:34;;;;;;;15.73;10.35;;;23.50;53.30;;;;;;4917137;29;20447;-85
2023/05/14 13:13:03;;;;;;;16.00;10.95;;;23.50;53.50;;;;;;4918722;29;20386;-85
2023/05/14 13:15:30;;;;;;;14.13;10.20;;;23.50;53.50;;;;;;4894333;29;20112;-85
2023/05/14 13:17:56;;;;;;;14.88;10.82;;;23.50;53.40;;;;;;4901253;29;20033;-85
2023/05/14 13:20:22;;;;;;;12.25;9.98;;;23.40;53.20;;;;;;4892061;29;20381;-85
2023/05/14 13:22:48;;;;;;;14.93;10.43;;;23.50;53.60;;;;;;4904611;29;20042;-84
2023/05/14 13:25:13;;;;;;;14.10;10.00;;;23.50;53.70;;;;;;4922148;29;20108;-85
2023/05/14 13:27:39;;;;;;;16.10;11.05;;;23.50;53.30;;;;;;4905196;29;20020;-85
2023/05/14 13:30:05;;;;;;;13.73;11.15;;;23.40;54.00;;;;;;4901529;29;20040;-84
2023/05/14 13:32:31;;;;;;;15.18;10.10;;;23.40;53.70;;;;;;4902010;29;20048;-85
2023/05/14 13:34:57;;;;;;;16.30;11.07;;;23.30;53.50;;;;;;4914086;29;20829;-85
2023/05/14 13:37:24;;;;;;;15.60;10.82;;;23.40;53.10;;;;;;4921738;29;20506;-84
2023/05/14 13:39:50;;;;;;;15.57;9.80;;;23.30;53.10;;;;;;4921716;29;20061;-85
2023/05/14 13:42:16;;;;;;;15.63;10.35;;;23.30;53.50;;;;;;4921295;29;20024;-85
2023/05/14 13:44:41;;;;;;;15.45;9.43;;;23.30;53.20;;;;;;4919528;29;20048;-85
2023/05/14 13:47:07;;;;;;;14.15;9.32;;;23.30;54.10;;;;;;4921675;29;20040;-85
2023/05/14 13:49:33;;;;;;;14.70;10.38;;;23.40;53.40;;;;;;4920572;29;20092;-85
2023/05/14 13:51:58;;;;;;;16.58;10.18;;;23.40;52.90;;;;;;4921164;29;20032;-85
2023/05/14 13:54:24;;;;;;;12.32;8.45;;;23.40;52.70;;;;;;4904608;29;20040;-85
2023/05/14 13:56:50;;;;;;;11.00;8.10;;;23.40;52.50;;;;;;4921079;29;20096;-84
2023/05/14 13:59:15;;;;;;;11.40;7.90;;;23.30;51.70;;;;;;4921397;29;20032;-84
2023/05/14 14:01:44;;;;;;;8.80;6.70;;;23.30;47.90;;;;;;4921371;29;20032;-85
2023/05/14 14:04:10;;;;;;;10.23;7.63;;;23.30;50.20;;;;;;4921337;29;20028;-85
2023/05/14 14:06:35;;;;;;;12.55;8.23;;;23.30;48.70;;;;;;4920906;29;20075;-83
2023/05/14 14:09:01;;;;;;;12.48;8.38;;;23.30;50.10;;;;;;4921176;29;20060;-84
2023/05/14 14:11:27;;;;;;;9.93;7.97;;;23.30;49.60;;;;;;4921103;29;20107;-85
2023/05/14 14:13:53;;;;;;;11.13;7.95;;;23.20;49.10;;;;;;4920649;29;20139;-83
2023/05/14 14:16:18;;;;;;;12.82;7.97;;;23.20;50.10;;;;;;4904356;29;20058;-84
2023/05/14 14:18:44;;;;;;;11.20;7.55;;;23.20;50.60;;;;;;4921069;29;20029;-84
2023/05/14 14:21:10;;;;;;;10.80;7.75;;;23.20;50.10;;;;;;4920844;29;20024;-83
2023/05/14 14:23:35;;;;;;;11.30;8.20;;;23.20;51.30;;;;;;4921533;29;20491;-86
2023/05/14 14:26:01;;;;;;;13.77;8.98;;;23.20;51.90;;;;;;4920689;29;20042;-79
2023/05/14 14:28:27;;;;;;;15.05;9.27;;;23.20;51.90;;;;;;4916527;29;20436;-86
2023/05/14 14:30:52;;;;;;;13.07;8.25;;;23.10;52.90;;;;;;4903047;29;20071;-85
2023/05/14 14:33:18;;;;;;;10.90;7.50;;;23.20;53.10;;;;;;4903098;29;20036;-84
2023/05/14 14:35:44;;;;;;;15.48;8.48;;;23.20;53.00;;;;;;4934023;29;20034;-83
2023/05/14 14:38:10;;;;;;;17.77;9.40;;;23.20;52.20;;;;;;4906325;29;20024;-79
2023/05/14 14:40:35;;;;;;;13.63;8.82;;;23.10;51.90;;;;;;4916838;29;20028;-81
2023/05/14 14:43:01;;;;;;;12.40;8.20;;;23.00;52.70;;;;;;4919526;29;20036;-80
2023/05/14 14:45:27;;;;;;;12.30;8.25;;;23.00;53.30;;;;;;4920585;29;20031;-80
2023/05/14 14:48:23;;;;;;;11.60;8.02;;;23.00;53.40;;;;;;4940234;29;20035;-79
2023/05/14 14:50:49;;;;;;;12.77;7.65;;;22.90;53.70;;;;;;4921794;29;20032;-80
2023/05/14 14:53:23;;;;;;;11.45;8.95;;;23.00;53.10;;;;;;4903043;29;20046;-89
2023/05/14 14:55:50;;;;;;;13.65;8.63;;;23.00;52.90;;;;;;4899184;29;20052;-81
2023/05/14 14:58:17;;;;;;;11.82;8.60;;;23.00;52.50;;;;;;4903351;29;20032;-82
2023/05/14 15:00:42;;;;;;;12.98;9.13;;;23.00;52.50;;;;;;4919795;29;20031;-81
2023/05/14 15:03:09;;;;;;;13.70;8.50;;;23.00;52.30;;;;;;4917675;29;20040;-85
2023/05/14 15:05:34;;;;;;;16.10;9.65;;;22.90;52.10;;;;;;4920493;29;20028;-82
2023/05/14 15:08:00;;;;;;;15.13;8.73;;;23.00;53.00;;;;;;4917473;29;20452;-81
2023/05/14 15:10:27;;;;;;;11.40;7.72;;;22.90;54.50;;;;;;4904950;29;20058;-84
2023/05/14 15:12:57;;;;;;;10.48;6.72;;;23.00;53.90;;;;;;4919974;29;20024;-84
2023/05/14 15:15:26;;;;;;;10.35;7.15;;;23.00;53.70;;;;;;4903251;29;20032;-85
2023/05/14 15:17:52;;;;;;;10.60;6.80;;;22.90;53.30;;;;;;4920150;29;20349;-84
2023/05/14 15:20:17;;;;;;;11.25;7.53;;;22.80;53.30;;;;;;4902066;29;20123;-84
2023/05/14 15:22:43;;;;;;;9.52;6.55;;;22.80;53.10;;;;;;4903103;29;20067;-84
2023/05/14 15:25:09;;;;;;;11.40;7.32;;;22.80;53.30;;;;;;4919345;29;20042;-81
2023/05/14 15:27:35;;;;;;;10.70;7.47;;;22.70;53.50;;;;;;4919974;29;20080;-81
2023/05/14 15:30:01;;;;;;;12.23;7.10;;;22.70;53.40;;;;;;4902735;29;20028;-82
2023/05/14 15:32:27;;;;;;;8.65;5.68;;;22.70;53.90;;;;;;4922444;29;20554;-81
2023/05/14 15:34:54;;;;;;;8.70;5.82;;;22.70;53.30;;;;;;4919921;29;20115;-84
2023/05/14 15:37:20;;;;;;;11.13;6.15;;;22.70;53.00;;;;;;4911969;29;20479;-82
2023/05/14 15:39:45;;;;;;;11.52;6.47;;;22.70;53.40;;;;;;4917680;29;20107;-80
2023/05/14 15:42:11;;;;;;;10.13;6.47;;;22.70;52.50;;;;;;4895798;29;20052;-81
2023/05/14 15:44:37;;;;;;;10.68;6.00;;;22.70;52.30;;;;;;4912038;29;20042;-81
2023/05/14 15:47:03;;;;;;;8.10;6.10;;;22.70;52.70;;;;;;4919288;29;20088;-80
2023/05/14 15:49:28;;;;;;;7.55;5.88;;;22.70;52.50;;;;;;4919073;29;20040;-80
2023/05/14 15:51:54;;;;;;;8.52;6.63;;;22.60;52.50;;;;;;4896521;29;20040;-80
2023/05/14 15:54:20;;;;;;;8.68;6.93;;;22.60;51.80;;;;;;4883782;29;20088;-81
2023/05/14 15:56:46;;;;;;;10.95;6.63;;;22.60;52.00;;;;;;4900840;29;20021;-82
2023/05/14 15:59:13;;;;;;;13.40;7.25;;;22.50;51.00;;;;;;4898218;29;20039;-81
2023/05/14 16:01:39;;;;;;;9.50;6.10;;;22.50;52.60;;;;;;4902160;29;20031;-81
2023/05/14 16:04:05;;;;;;;8.95;5.68;;;22.50;52.60;;;;;;4918943;29;20040;-75
2023/05/14 16:06:33;;;;;;;;;;;22.60;51.20;;;;;;4919829;29;20407;-80
2023/05/14 16:09:00;;;;;;;;;;;22.30;51.40;;;;;;4903072;29;19915;-83
2023/05/14 16:11:25;;;;;;;;;;;22.30;51.40;;;;;;4900420;29;20002;-84
2023/05/14 16:13:51;;;;;;;;;;;22.30;50.80;;;;;;4937720;29;20361;-83
2023/05/14 16:16:18;;;;;;;;;;;22.30;50.80;;;;;;4910721;29;20370;-83
2023/05/14 16:18:43;;;;;;;;;;;22.30;51.50;;;;;;4902416;29;19911;-83
2023/05/14 16:21:09;;;;;;;;;;;22.30;51.40;;;;;;4902086;29;19917;-80
2023/05/14 16:23:35;;;;;;;;;;;22.30;52.30;;;;;;4919349;29;19966;-81
2023/05/14 16:26:00;;;;;;;;;;;22.30;52.90;;;;;;4902000;29;19958;-82
2023/05/14 16:28:26;;;;;;;;;;;22.30;53.20;;;;;;4902790;29;19908;-83
2023/05/14 16:30:51;;;;;;;;;;;22.30;52.50;;;;;;4896121;29;19930;-82
2023/05/14 16:33:17;;;;;;;;;;;22.30;52.30;;;;;;4883595;29;19919;-86
2023/05/14 16:35:44;;;;;;;;;;;22.30;52.30;;;;;;4900869;29;19914;-84
2023/05/14 16:38:09;;;;;;;;;;;22.30;52.60;;;;;;4901402;29;20368;-82
2023/05/14 16:40:35;;;;;;;;;;;22.20;52.60;;;;;;4893955;29;19958;-85
2023/05/14 16:43:00;;;;;;;;;;;22.10;53.00;;;;;;4897575;29;19915;-81
2023/05/14 16:45:36;;;;;;;;;;;;;;;;;;;;;
2023/05/14 16:48:02;;;;;;;;;;;21.80;53.30;;;;;;4888495;29;19914;-80
2023/05/14 16:50:31;;;;;;;;;;;21.80;53.90;;;;;;4889280;29;19955;-89
2023/05/14 16:52:56;;;;;;;;;;;21.70;54.40;;;;;;4889667;29;19911;-86
2023/05/14 16:55:22;;;;;;;;;;;21.60;55.00;;;;;;4892631;29;19918;-90
2023/05/14 16:57:59;;;;;;;;;;;;;;;;;;;;;
2023/05/14 17:00:27;;;;;;;;;;;21.50;55.90;;;;;;4907590;29;19975;-87
2023/05/14 17:03:22;;;;;;;;;;;21.40;56.20;;;;;;4894183;29;19991;-86
2023/05/14 17:05:48;;;;;;;;;;;21.40;56.30;;;;;;4896717;29;19911;-90
2023/05/14 17:08:13;;;;;;;;;;;21.30;56.10;;;;;;4879246;29;19918;-87
2023/05/14 17:10:42;;;;;;;;;;;21.20;56.70;;;;;;4886210;29;20376;-83